Falmouth, MA

7:52 AM EDT on September 02, 2014 (GMT -0400)
Falmouth Village | Change Station
CLOSE
Current Station
Personal Weather Station
Location: Falmouth, MA
Elevation: 13 ft
Nearby Weather Stations

Elev 13 ft 41.55 °N, 70.61 °W | Updated 13 seconds ago

Fog
Fog
71.8 °F
Feels Like 71.8 °F
N
0.0
Wind Variable Wind from ESE
Gusts 2.2 mph

Today
High -- | Low -- °F
--% Chance of Precip.
Yesterday
High -- | Low -- °F
Precip. -- in
6:09 AM 7:14 PM
Waxing Crescent, 50% visible
Pressure 29.94 in
Visibility 0.2 miles
Clouds
Dew Point 71 °F
Humidity 98%
Rainfall 0.00 in
Snow Depth Not available.
UV Not available.
Pollen 6.70 out of 12
Air Quality Not available.
Flu Activity Not available.
METAR KFMH 021135Z 22005KT M1/4SM FG VV003 22/22 A2994 RMK AO2

More Conditions Fewer Conditions

Pressure 29.94 in
Visibility 0.2 miles
Clouds
Dew Point 71 °F
Humidity 98%
Rainfall 0.00 in
Snow Depth Not available.
UV Not available.
Pollen 6.70 out of 12
Air Quality Not available.
Flu Activity Not available.
METAR KFMH 021135Z 22005KT M1/4SM FG VV003 22/22 A2994 RMK AO2

More Conditions Fewer Conditions

10-Day Weather Forecast

Almanac

Astronomy

Sep. 02, 2014 Rise Set
Actual Time 6:09 AM EDT 7:14 PM EDT
Civil Twilight 5:41 AM EDT 7:42 PM EDT
Nautical Twilight 5:07 AM EDT 8:16 PM EDT
Astronomical Twilight 4:31 AM EDT 8:51 PM EDT
Moon 1:56 PM EDT 11:59 PM EDT
Length of Visible Light 14h 01m
Length of Day
13h 04m
Tomorrow will be 2m 41s shorter.
Waxing Crescent, 50% of the Moon is Illuminated
Today
Waxing Crescent
Sep 8
Full
Sep 15
Last Quarter
Sep 24
New
Oct 1
First Quarter

Today's Extremes

State Highs State Lows

Community

WunderPhotos

Upload Photos

1,749,621 photos uploaded!

WunderBlogs® & News

By Dr. Jeff Masters
Director of Meteorology, Weather Underground
By Kari Strenfel
Meteorologist, Weather Underground
By Christopher C. Burt
Weather Historian, Weather Underground
September 2, 2014
September 2, 2014
September 2, 2014

Nearby

Air Quality

  Air Quality AQ Index Pollutant
Yesterday Good
OZONE
Tuesday Moderate
PM2.5
Tuesday Good
OZONE

Snow Depth

Station Depth Elevation
No new snow has been reported.

Earthquake Activity

City Distance Mag. Time & Date
No recent earthquake activity has been reported nearby.
Minimum magnitude displayed is 2.5.

Coastal Water Temperatures

Place Temperature
Woods Hole, MA 71.1 °F
Fall River, MA 75.0 °F
Newport, RI 70.0 °F

Nearby Weather Stations